Time,TemperatureF,DewpointF,PressureIn,WindDirection,WindDirectionDegrees,WindSpeedMPH,WindSpeedGustMPH,Humidity,HourlyPrecipIn,Conditions,Clouds,dailyrainin,SoftwareType,DateUTC
2013-11-26 00:11:00,38.5,13.3,30.17,East,90,1.7,-999.0,35,-99.99,,,0.00,Acu-Link.com,2013-11-26 05:11:00,
2013-11-26 00:26:00,38.5,12.6,30.17,East,90,1.1,-999.0,34,-99.99,,,0.00,Acu-Link.com,2013-11-26 05:26:00,
2013-11-26 00:41:00,38.5,13.3,30.16,ESE,112,1.1,-999.0,35,-99.99,,,0.00,Acu-Link.com,2013-11-26 05:41:00,
2013-11-26 00:56:00,38.3,12.4,30.15,NNW,337,1.7,-999.0,34,-99.99,,,0.00,Acu-Link.com,2013-11-26 05:56:00,
2013-11-26 01:11:00,38.3,13.1,30.14,ESE,112,1.1,-999.0,35,-99.99,,,0.00,Acu-Link.com,2013-11-26 06:11:00,
2013-11-26 01:26:00,38.3,12.4,30.13,East,90,0.0,-999.0,34,-99.99,,,0.00,Acu-Link.com,2013-11-26 06:26:00,
2013-11-26 01:42:00,38.3,12.4,30.12,NNE,22,2.2,-999.0,34,-99.99,,,0.00,Acu-Link.com,2013-11-26 06:42:00,
2013-11-26 01:57:00,38.3,12.4,30.12,NE,45,2.7,-999.0,34,-99.99,,,0.00,Acu-Link.com,2013-11-26 06:57:00,
2013-11-26 02:12:00,38.1,12.2,30.11,ESE,112,1.7,-999.0,34,-99.99,,,0.00,Acu-Link.com,2013-11-26 07:12:00,
2013-11-26 02:27:00,38.1,12.9,30.11,East,90,2.7,-999.0,35,-99.99,,,0.00,Acu-Link.com,2013-11-26 07:27:00,
2013-11-26 02:42:00,38.1,12.2,30.10,ESE,112,1.1,-999.0,34,-99.99,,,0.00,Acu-Link.com,2013-11-26 07:42:00,
2013-11-26 02:57:00,38.1,12.9,30.09,SSW,202,0.0,-999.0,35,-99.99,,,0.00,Acu-Link.com,2013-11-26 07:57:00,
2013-11-26 03:13:00,38.1,12.9,30.10,ESE,112,2.2,-999.0,35,-99.99,,,0.00,Acu-Link.com,2013-11-26 08:13:00,
2013-11-26 03:28:00,37.9,13.4,30.09,ESE,112,1.7,-999.0,36,-99.99,,,0.00,Acu-Link.com,2013-11-26 08:28:00,
2013-11-26 03:43:00,37.9,14.0,30.09,ESE,112,1.1,-999.0,37,-99.99,,,0.00,Acu-Link.com,2013-11-26 08:43:00,
2013-11-26 03:58:00,37.9,14.6,30.09,East,90,3.2,-999.0,38,-99.99,,,0.00,Acu-Link.com,2013-11-26 08:58:00,
2013-11-26 04:13:00,37.9,14.6,30.08,ESE,112,1.7,-999.0,38,-99.99,,,0.00,Acu-Link.com,2013-11-26 09:13:00,
2013-11-26 04:28:00,37.9,15.8,30.08,NE,45,2.2,-999.0,40,-99.99,,,0.00,Acu-Link.com,2013-11-26 09:28:00,
2013-11-26 04:43:00,37.8,17.9,30.08,ENE,67,1.1,-999.0,44,-99.99,,,0.00,Acu-Link.com,2013-11-26 09:43:00,
2013-11-26 04:59:00,37.2,18.9,30.09,NE,45,0.0,-999.0,47,-99.99,,,0.00,Acu-Link.com,2013-11-26 09:59:00,
2013-11-26 05:14:00,37.0,18.7,30.08,East,90,1.7,-999.0,47,-99.99,,,0.00,Acu-Link.com,2013-11-26 10:14:00,
2013-11-26 05:29:00,36.7,21.2,30.08,ESE,112,1.7,-999.0,53,-99.99,,,0.00,Acu-Link.com,2013-11-26 10:29:00,
2013-11-26 05:44:00,35.8,24.1,30.08,NE,45,2.7,-999.0,62,-99.99,,,0.00,Acu-Link.com,2013-11-26 10:44:00,
2013-11-26 06:00:00,34.7,26.3,30.07,NE,45,0.0,-999.0,71,-99.99,,,0.00,Acu-Link.com,2013-11-26 11:00:00,
2013-11-26 06:15:00,33.8,28.0,30.08,ENE,67,1.7,-999.0,79,-99.99,,,0.01,Acu-Link.com,2013-11-26 11:15:00,
2013-11-26 06:30:00,33.3,29.3,30.07,West,270,0.0,-999.0,85,-99.99,,,0.02,Acu-Link.com,2013-11-26 11:30:00,
2013-11-26 06:45:00,32.5,30.2,30.06,North,0,2.7,-999.0,91,-99.99,,,0.03,Acu-Link.com,2013-11-26 11:45:00,
2013-11-26 07:00:00,32.0,31.0,30.04,NE,45,3.2,-999.0,96,-99.99,,,0.05,Acu-Link.com,2013-11-26 12:00:00,
2013-11-26 07:15:00,32.2,31.4,30.01,East,90,3.2,-999.0,97,-99.99,,,0.08,Acu-Link.com,2013-11-26 12:15:00,
2013-11-26 07:30:00,32.0,31.5,30.00,East,90,2.2,-999.0,98,-99.99,,,0.12,Acu-Link.com,2013-11-26 12:30:00,
2013-11-26 07:46:00,32.2,32.0,30.00,ENE,67,4.2,-999.0,99,-99.99,,,0.16,Acu-Link.com,2013-11-26 12:46:00,
2013-11-26 08:01:00,32.2,32.0,29.98,West,270,4.7,-999.0,99,-99.99,,,0.22,Acu-Link.com,2013-11-26 13:01:00,
2013-11-26 08:16:00,32.2,32.0,29.99,ESE,112,3.2,-999.0,99,-99.99,,,0.23,Acu-Link.com,2013-11-26 13:16:00,
2013-11-26 08:31:00,32.4,32.2,29.97,ESE,112,2.2,-999.0,99,-99.99,,,0.26,Acu-Link.com,2013-11-26 13:31:00,
2013-11-26 08:46:00,32.4,32.2,29.97,NE,45,2.7,-999.0,99,-99.99,,,0.27,Acu-Link.com,2013-11-26 13:46:00,
2013-11-26 09:01:00,32.4,32.2,29.96,SSE,157,2.7,-999.0,99,-99.99,,,0.29,Acu-Link.com,2013-11-26 14:01:00,
2013-11-26 09:16:00,32.5,32.3,29.95,NE,45,2.2,-999.0,99,-99.99,,,0.33,Acu-Link.com,2013-11-26 14:16:00,
2013-11-26 09:31:00,32.7,32.5,29.94,East,90,3.7,-999.0,99,-99.99,,,0.35,Acu-Link.com,2013-11-26 14:31:00,
2013-11-26 09:46:00,32.9,32.7,29.93,East,90,2.2,-999.0,99,-99.99,,,0.36,Acu-Link.com,2013-11-26 14:46:00,
2013-11-26 10:02:00,33.3,33.0,29.93,ESE,112,2.7,-999.0,99,-99.99,,,0.37,Acu-Link.com,2013-11-26 15:02:00,
2013-11-26 10:17:00,33.3,33.0,29.94,WNW,292,1.7,-999.0,99,-99.99,,,0.43,Acu-Link.com,2013-11-26 15:17:00,
2013-11-26 10:32:00,33.4,33.1,29.92,NNW,337,2.7,-999.0,99,-99.99,,,0.46,Acu-Link.com,2013-11-26 15:32:00,
2013-11-26 10:47:00,33.6,33.3,29.91,NNE,22,6.3,-999.0,99,-99.99,,,0.49,Acu-Link.com,2013-11-26 15:47:00,
2013-11-26 11:02:00,34.2,33.9,29.89,NNE,22,4.2,-999.0,99,-99.99,,,0.53,Acu-Link.com,2013-11-26 16:02:00,
2013-11-26 11:17:00,34.5,34.2,29.88,East,90,3.7,-999.0,99,-99.99,,,0.58,Acu-Link.com,2013-11-26 16:17:00,
2013-11-26 11:32:00,35.1,34.8,29.86,East,90,2.7,-999.0,99,-99.99,,,0.61,Acu-Link.com,2013-11-26 16:32:00,
2013-11-26 11:48:00,35.4,35.1,29.84,ESE,112,2.7,-999.0,99,-99.99,,,0.64,Acu-Link.com,2013-11-26 16:48:00,
2013-11-26 12:03:00,35.8,35.5,29.82,ENE,67,2.7,-999.0,99,-99.99,,,0.66,Acu-Link.com,2013-11-26 17:03:00,
2013-11-26 12:18:00,36.1,35.8,29.80,SE,135,2.7,-999.0,99,-99.99,,,0.68,Acu-Link.com,2013-11-26 17:18:00,
2013-11-26 12:33:00,36.7,36.4,29.78,ESE,112,3.7,-999.0,99,-99.99,,,0.71,Acu-Link.com,2013-11-26 17:33:00,
2013-11-26 12:48:00,36.9,36.6,29.77,ESE,112,3.2,-999.0,99,-99.99,,,0.72,Acu-Link.com,2013-11-26 17:48:00,
2013-11-26 13:03:00,37.4,37.1,29.75,East,90,2.7,-999.0,99,-99.99,,,0.74,Acu-Link.com,2013-11-26 18:03:00,
2013-11-26 13:18:00,37.9,37.6,29.74,ESE,112,2.7,-999.0,99,-99.99,,,0.77,Acu-Link.com,2013-11-26 18:18:00,
2013-11-26 13:33:00,38.3,38.0,29.72,ESE,112,3.7,-999.0,99,-99.99,,,0.81,Acu-Link.com,2013-11-26 18:33:00,
2013-11-26 13:49:00,39.4,39.1,29.70,East,90,2.7,-999.0,99,-99.99,,,0.82,Acu-Link.com,2013-11-26 18:49:00,
2013-11-26 14:04:00,40.3,40.0,29.69,ESE,112,3.2,-999.0,99,-99.99,,,0.83,Acu-Link.com,2013-11-26 19:04:00,
2013-11-26 14:19:00,40.6,40.3,29.67,East,90,2.2,-999.0,99,-99.99,,,0.87,Acu-Link.com,2013-11-26 19:19:00,
2013-11-26 14:34:00,40.8,40.5,29.66,ENE,67,2.7,-999.0,99,-99.99,,,0.92,Acu-Link.com,2013-11-26 19:34:00,
2013-11-26 14:49:00,41.4,41.1,29.65,ESE,112,2.7,-999.0,99,-99.99,,,0.95,Acu-Link.com,2013-11-26 19:49:00,
2013-11-26 15:04:00,42.1,41.8,29.63,East,90,2.2,-999.0,99,-99.99,,,0.97,Acu-Link.com,2013-11-26 20:04:00,
2013-11-26 15:19:00,42.4,42.1,29.62,ESE,112,2.2,-999.0,99,-99.99,,,0.97,Acu-Link.com,2013-11-26 20:19:00,
2013-11-26 15:34:00,42.8,42.5,29.60,SE,135,2.7,-999.0,99,-99.99,,,0.98,Acu-Link.com,2013-11-26 20:34:00,
2013-11-26 15:49:00,43.5,43.2,29.58,ESE,112,2.7,-999.0,99,-99.99,,,1.01,Acu-Link.com,2013-11-26 20:49:00,
2013-11-26 16:04:00,43.9,43.6,29.58,North,0,0.0,-999.0,99,-99.99,,,1.03,Acu-Link.com,2013-11-26 21:04:00,
2013-11-26 16:20:00,44.2,43.9,29.56,ESE,112,1.7,-999.0,99,-99.99,,,1.09,Acu-Link.com,2013-11-26 21:20:00,
2013-11-26 16:35:00,45.1,44.8,29.53,ESE,112,2.7,-999.0,99,-99.99,,,1.12,Acu-Link.com,2013-11-26 21:35:00,
2013-11-26 16:50:00,45.9,45.6,29.52,WNW,292,0.0,-999.0,99,-99.99,,,1.19,Acu-Link.com,2013-11-26 21:50:00,
2013-11-26 17:05:00,46.2,45.9,29.52,NNW,337,0.0,-999.0,99,-99.99,,,1.22,Acu-Link.com,2013-11-26 22:05:00,
2013-11-26 17:20:00,46.8,46.5,29.51,West,270,3.2,-999.0,99,-99.99,,,1.23,Acu-Link.com,2013-11-26 22:20:00,
2013-11-26 17:35:00,46.9,46.6,29.49,ESE,112,2.2,-999.0,99,-99.99,,,1.34,Acu-Link.com,2013-11-26 22:35:00,
2013-11-26 17:50:00,46.0,45.7,29.49,ENE,67,3.2,-999.0,99,-99.99,,,1.45,Acu-Link.com,2013-11-26 22:50:00,
2013-11-26 18:05:00,43.0,42.7,29.50,NE,45,6.3,-999.0,99,-99.99,,,1.57,Acu-Link.com,2013-11-26 23:05:00,
2013-11-26 18:20:00,42.4,42.1,29.51,North,0,4.7,-999.0,99,-99.99,,,1.63,Acu-Link.com,2013-11-26 23:20:00,
2013-11-26 18:36:00,41.5,41.2,29.55,WNW,292,6.8,-999.0,99,-99.99,,,1.71,Acu-Link.com,2013-11-26 23:36:00,
2013-11-26 18:51:00,41.0,40.7,29.55,WNW,292,4.7,-999.0,99,-99.99,,,1.76,Acu-Link.com,2013-11-26 23:51:00,
2013-11-26 19:06:00,40.6,40.3,29.54,North,0,5.8,-999.0,99,-99.99,,,1.78,Acu-Link.com,2013-11-27 00:06:00,
2013-11-26 19:21:00,40.6,40.3,29.53,NNE,22,3.7,-999.0,99,-99.99,,,1.79,Acu-Link.com,2013-11-27 00:21:00,
2013-11-26 19:36:00,40.6,40.3,29.53,North,0,3.7,-999.0,99,-99.99,,,1.79,Acu-Link.com,2013-11-27 00:36:00,
2013-11-26 19:51:00,40.8,40.5,29.53,North,0,3.7,-999.0,99,-99.99,,,1.79,Acu-Link.com,2013-11-27 00:51:00,
2013-11-26 20:07:00,41.0,40.7,29.52,NNW,337,2.7,-999.0,99,-99.99,,,1.79,Acu-Link.com,2013-11-27 01:07:00,
2013-11-26 20:22:00,41.2,40.9,29.51,ENE,67,1.7,-999.0,99,-99.99,,,1.80,Acu-Link.com,2013-11-27 01:22:00,
2013-11-26 20:37:00,41.5,41.2,29.49,NW,315,3.2,-999.0,99,-99.99,,,1.80,Acu-Link.com,2013-11-27 01:37:00,
2013-11-26 20:52:00,41.5,41.2,29.49,NW,315,2.2,-999.0,99,-99.99,,,1.81,Acu-Link.com,2013-11-27 01:52:00,
2013-11-26 21:07:00,41.7,41.4,29.48,ENE,67,2.7,-999.0,99,-99.99,,,1.90,Acu-Link.com,2013-11-27 02:07:00,
2013-11-26 21:22:00,41.9,41.6,29.47,NE,45,0.0,-999.0,99,-99.99,,,1.93,Acu-Link.com,2013-11-27 02:22:00,
2013-11-26 21:37:00,42.1,41.8,29.47,North,0,1.7,-999.0,99,-99.99,,,1.93,Acu-Link.com,2013-11-27 02:37:00,
2013-11-26 21:52:00,42.1,41.8,29.47,North,0,3.2,-999.0,99,-99.99,,,1.94,Acu-Link.com,2013-11-27 02:52:00,
2013-11-26 22:07:00,42.3,42.0,29.46,West,270,1.7,-999.0,99,-99.99,,,1.96,Acu-Link.com,2013-11-27 03:07:00,
2013-11-26 22:23:00,42.4,42.1,29.46,WSW,247,1.1,-999.0,99,-99.99,,,1.98,Acu-Link.com,2013-11-27 03:23:00,
2013-11-26 22:38:00,42.6,42.3,29.45,NW,315,2.7,-999.0,99,-99.99,,,1.98,Acu-Link.com,2013-11-27 03:38:00,
2013-11-26 22:53:00,43.0,42.7,29.44,NE,45,0.0,-999.0,99,-99.99,,,1.98,Acu-Link.com,2013-11-27 03:53:00,
2013-11-26 23:08:00,43.2,42.9,29.43,NE,45,3.2,-999.0,99,-99.99,,,1.98,Acu-Link.com,2013-11-27 04:08:00,
2013-11-26 23:23:00,43.5,43.2,29.43,NNW,337,2.2,-999.0,99,-99.99,,,1.98,Acu-Link.com,2013-11-27 04:23:00,
2013-11-26 23:38:00,43.7,43.4,29.43,NE,45,2.7,-999.0,99,-99.99,,,2.00,Acu-Link.com,2013-11-27 04:38:00,
2013-11-26 23:53:00,43.9,43.6,29.42,NNW,337,1.1,-999.0,99,-99.99,,,2.00,Acu-Link.com,2013-11-27 04:53:00,